createdAt,value
2016-12-09T00:00:07.497Z,1.3
2016-12-09T00:00:26.118Z,1.3
2016-12-09T00:00:44.772Z,1.4
2016-12-09T00:01:03.397Z,1.4
2016-12-09T00:01:22.028Z,1.4
2016-12-09T00:01:40.653Z,1.4
2016-12-09T00:01:59.281Z,1.5
2016-12-09T00:02:17.942Z,1.5
2016-12-09T00:02:36.566Z,1.5
2016-12-09T00:02:55.194Z,1.5
2016-12-09T00:03:13.813Z,1.5
2016-12-09T00:03:32.433Z,1.6
2016-12-09T00:03:51.061Z,1.6
2016-12-09T00:04:09.722Z,1.6
2016-12-09T00:04:28.371Z,1.6
2016-12-09T00:04:46.992Z,1.6
2016-12-09T00:05:05.610Z,1.6
2016-12-09T00:05:24.238Z,1.6
2016-12-09T00:05:42.873Z,1.6
2016-12-09T00:06:01.500Z,1.6
2016-12-09T00:06:20.131Z,1.7
2016-12-09T00:06:38.758Z,1.7
2016-12-09T00:06:57.377Z,1.7
2016-12-09T00:07:16.001Z,1.7
2016-12-09T00:07:34.658Z,1.7
2016-12-09T00:07:53.283Z,1.7
2016-12-09T00:08:11.907Z,1.7
2016-12-09T00:08:30.530Z,1.7
2016-12-09T00:08:49.158Z,1.7
2016-12-09T00:09:07.781Z,1.7
2016-12-09T00:09:26.409Z,1.7
2016-12-09T00:09:45.033Z,1.7
2016-12-09T00:10:03.654Z,1.7
2016-12-09T00:10:22.278Z,1.7
2016-12-09T00:10:40.906Z,1.7
2016-12-09T00:10:59.543Z,1.7
2016-12-09T00:11:18.192Z,1.7
2016-12-09T00:11:36.818Z,1.7
2016-12-09T00:11:55.439Z,1.8
2016-12-09T00:12:14.063Z,1.8
2016-12-09T00:12:32.689Z,1.8
2016-12-09T00:12:51.327Z,1.8
2016-12-09T00:13:09.953Z,1.8
2016-12-09T00:13:28.577Z,1.8
2016-12-09T00:13:47.207Z,1.9
2016-12-09T00:14:05.836Z,1.9
2016-12-09T00:14:24.464Z,2
2016-12-09T00:14:43.119Z,2
2016-12-09T00:15:01.739Z,2.1
2016-12-09T00:15:20.362Z,2.1
2016-12-09T00:15:38.988Z,2.1
2016-12-09T00:15:57.621Z,2.1
2016-12-09T00:16:16.251Z,2.1
2016-12-09T00:16:34.889Z,2.2
2016-12-09T00:16:53.514Z,2.2
2016-12-09T00:17:12.148Z,2.2
2016-12-09T00:17:30.772Z,2.2
2016-12-09T00:17:49.398Z,2.2
2016-12-09T00:18:08.066Z,2.2
2016-12-09T00:18:26.696Z,2.2
2016-12-09T00:18:45.332Z,2.2
2016-12-09T00:19:03.960Z,2.2
2016-12-09T00:19:22.585Z,2.3
2016-12-09T00:19:41.215Z,2.3
2016-12-09T00:19:59.849Z,2.3
2016-12-09T00:20:18.477Z,2.3
2016-12-09T00:20:37.102Z,2.3
2016-12-09T00:20:55.728Z,2.4
2016-12-09T00:21:14.359Z,2.4
2016-12-09T00:21:32.987Z,2.5
2016-12-09T00:21:51.618Z,2.5
2016-12-09T00:22:10.244Z,2.5
2016-12-09T00:22:28.870Z,2.6
2016-12-09T00:22:47.492Z,2.6
2016-12-09T00:23:06.115Z,2.6
2016-12-09T00:23:24.783Z,2.6
2016-12-09T00:23:43.409Z,2.6
2016-12-09T00:24:02.032Z,2.6
2016-12-09T00:24:20.663Z,2.5
2016-12-09T00:24:39.289Z,2.5
2016-12-09T00:24:57.912Z,2.6
2016-12-09T00:25:16.532Z,2.5
2016-12-09T00:25:35.155Z,2.5
2016-12-09T00:25:53.786Z,2.5
2016-12-09T00:26:12.416Z,2.5
2016-12-09T00:26:31.042Z,2.5
2016-12-09T00:26:49.690Z,2.5
2016-12-09T00:27:08.324Z,2.5
2016-12-09T00:27:26.953Z,2.5
2016-12-09T00:27:45.580Z,2.5
2016-12-09T00:28:04.205Z,2.5
2016-12-09T00:28:22.825Z,2.5
2016-12-09T00:28:41.476Z,2.5
2016-12-09T00:29:00.100Z,2.5
2016-12-09T00:29:18.731Z,2.5
2016-12-09T00:29:37.359Z,2.5
2016-12-09T00:29:55.983Z,2.5
2016-12-09T00:30:14.637Z,2.5
2016-12-09T00:30:33.265Z,2.5
2016-12-09T00:30:51.893Z,2.5
2016-12-09T00:31:10.521Z,2.5
2016-12-09T00:31:29.138Z,2.6
2016-12-09T00:31:47.758Z,2.5
2016-12-09T00:32:06.381Z,2.5
2016-12-09T00:32:25.011Z,2.5
2016-12-09T00:32:43.632Z,2.6
2016-12-09T00:33:02.256Z,2.6
2016-12-09T00:33:20.878Z,2.6
2016-12-09T00:33:39.525Z,2.6
2016-12-09T00:33:58.176Z,2.6
2016-12-09T00:34:16.801Z,2.6
2016-12-09T00:34:35.423Z,2.6
2016-12-09T00:34:54.049Z,2.7
2016-12-09T00:35:12.677Z,2.7
2016-12-09T00:35:31.307Z,2.6
2016-12-09T00:35:49.933Z,2.6
2016-12-09T00:36:08.555Z,2.6
2016-12-09T00:36:27.178Z,2.6
2016-12-09T00:36:45.805Z,2.7
2016-12-09T00:37:04.445Z,2.7
2016-12-09T00:37:23.103Z,2.7
2016-12-09T00:37:41.728Z,2.7
2016-12-09T00:38:00.353Z,2.7
2016-12-09T00:38:18.973Z,2.7
2016-12-09T00:38:37.595Z,2.7
2016-12-09T00:38:56.215Z,2.7
2016-12-09T00:39:14.869Z,2.7
2016-12-09T00:39:33.494Z,2.7
2016-12-09T00:39:52.116Z,2.7
2016-12-09T00:40:10.741Z,2.6
2016-12-09T00:40:29.383Z,2.6
2016-12-09T00:40:48.041Z,2.6
2016-12-09T00:41:06.665Z,2.6
2016-12-09T00:41:25.288Z,2.6
2016-12-09T00:41:43.913Z,2.6
2016-12-09T00:42:02.529Z,2.5
2016-12-09T00:42:21.156Z,2.5
2016-12-09T00:42:39.785Z,2.6
2016-12-09T00:42:58.411Z,2.6
2016-12-09T00:43:17.043Z,2.5
2016-12-09T00:43:35.671Z,2.6
2016-12-09T00:43:54.292Z,2.6
2016-12-09T00:44:12.956Z,2.6
2016-12-09T00:44:31.606Z,2.6
2016-12-09T00:44:50.227Z,2.6
2016-12-09T00:45:08.856Z,2.6
2016-12-09T00:45:27.481Z,2.6
2016-12-09T00:45:46.104Z,2.6
2016-12-09T00:46:04.738Z,2.6
2016-12-09T00:46:23.359Z,2.6
2016-12-09T00:46:41.984Z,2.6
2016-12-09T00:47:00.608Z,2.6
2016-12-09T00:47:19.244Z,2.6
2016-12-09T00:47:37.878Z,2.6
2016-12-09T00:47:56.505Z,2.6
2016-12-09T00:48:15.130Z,2.7
2016-12-09T00:48:33.750Z,2.7
2016-12-09T00:48:52.383Z,2.7
2016-12-09T00:49:11.010Z,2.7
2016-12-09T00:49:29.666Z,2.7
2016-12-09T00:49:48.311Z,2.7
2016-12-09T00:50:06.940Z,2.7
2016-12-09T00:50:25.570Z,2.7
2016-12-09T00:50:44.192Z,2.7
2016-12-09T00:51:02.819Z,2.7
2016-12-09T00:51:21.450Z,2.7
2016-12-09T00:51:40.073Z,2.8
2016-12-09T00:51:58.697Z,2.8
2016-12-09T00:52:17.326Z,2.8
2016-12-09T00:52:35.951Z,2.8
2016-12-09T00:52:54.615Z,2.8
2016-12-09T00:53:13.243Z,2.8
2016-12-09T00:53:31.868Z,2.8
2016-12-09T00:53:50.490Z,2.8
2016-12-09T00:54:09.112Z,2.8
2016-12-09T00:54:27.742Z,2.8
2016-12-09T00:54:46.376Z,2.8
2016-12-09T00:55:05.023Z,2.9
2016-12-09T00:55:23.648Z,2.9
2016-12-09T00:55:42.269Z,2.8
2016-12-09T00:56:00.892Z,2.8
2016-12-09T00:56:19.549Z,2.8
2016-12-09T00:56:38.174Z,2.8
2016-12-09T00:56:56.792Z,2.8
2016-12-09T00:57:15.415Z,2.8
2016-12-09T00:57:34.050Z,2.8
2016-12-09T00:57:52.677Z,2.8
2016-12-09T00:58:11.302Z,2.8
2016-12-09T00:58:29.926Z,2.9
2016-12-09T00:58:48.546Z,2.9
2016-12-09T00:59:07.170Z,2.9
2016-12-09T00:59:25.814Z,2.9
2016-12-09T00:59:44.474Z,3
2016-12-09T01:00:03.102Z,3
2016-12-09T01:00:21.739Z,3
2016-12-09T01:00:40.362Z,3
2016-12-09T01:00:58.982Z,3
2016-12-09T01:01:17.609Z,3
2016-12-09T01:01:36.235Z,3
2016-12-09T01:01:54.858Z,3
2016-12-09T01:02:13.482Z,3
2016-12-09T01:02:32.107Z,3
2016-12-09T01:02:50.728Z,3
2016-12-09T01:03:09.382Z,3
2016-12-09T01:03:28.011Z,3
2016-12-09T01:03:46.633Z,3
2016-12-09T01:04:05.258Z,3
2016-12-09T01:04:23.877Z,3
2016-12-09T01:04:42.502Z,3
2016-12-09T01:05:01.135Z,3.1
2016-12-09T01:05:19.769Z,3.1
2016-12-09T01:05:38.408Z,3.1
2016-12-09T01:05:57.037Z,3.1
2016-12-09T01:06:15.660Z,3.1
2016-12-09T01:06:34.303Z,3.1
2016-12-09T01:06:52.955Z,3.1
2016-12-09T01:07:11.585Z,3
2016-12-09T01:07:30.211Z,3
2016-12-09T01:07:48.834Z,3
2016-12-09T01:08:07.461Z,3
2016-12-09T01:08:26.087Z,3
2016-12-09T01:08:44.714Z,3
2016-12-09T01:09:03.345Z,3
2016-12-09T01:09:21.971Z,3
2016-12-09T01:09:40.597Z,3
2016-12-09T01:09:59.220Z,3
2016-12-09T01:10:17.881Z,3
2016-12-09T01:10:36.505Z,3
2016-12-09T01:10:55.135Z,3
2016-12-09T01:11:13.753Z,3
2016-12-09T01:11:32.380Z,3
2016-12-09T01:11:51.006Z,2.9
2016-12-09T01:12:09.643Z,2.9
2016-12-09T01:12:28.274Z,2.9
2016-12-09T01:12:46.894Z,2.9
2016-12-09T01:13:05.517Z,2.9
2016-12-09T01:13:24.140Z,2.8
2016-12-09T01:13:42.764Z,2.8
2016-12-09T01:14:01.384Z,2.8
2016-12-09T01:14:20.010Z,2.8
2016-12-09T01:14:38.628Z,2.8
2016-12-09T01:14:57.254Z,2.8
2016-12-09T01:15:15.884Z,2.8
2016-12-09T01:15:34.542Z,2.8
2016-12-09T01:15:53.170Z,2.8
2016-12-09T01:16:11.805Z,2.8
2016-12-09T01:16:30.437Z,2.8
2016-12-09T01:16:49.071Z,2.8
2016-12-09T01:17:07.697Z,2.8
2016-12-09T01:17:26.320Z,2.8
2016-12-09T01:17:44.947Z,2.8
2016-12-09T01:18:03.566Z,2.7
2016-12-09T01:18:22.192Z,2.7
2016-12-09T01:18:40.822Z,2.7
2016-12-09T01:18:59.486Z,2.7
2016-12-09T01:19:18.109Z,2.7
2016-12-09T01:19:36.731Z,2.6
2016-12-09T01:19:55.352Z,2.6
2016-12-09T01:20:13.971Z,2.6
2016-12-09T01:20:32.610Z,2.6
2016-12-09T01:20:51.231Z,2.6
2016-12-09T01:21:09.855Z,2.7
2016-12-09T01:21:28.483Z,2.6
2016-12-09T01:21:47.102Z,2.6
2016-12-09T01:22:05.726Z,2.6
2016-12-09T01:22:24.384Z,2.6
2016-12-09T01:22:43.006Z,2.6
2016-12-09T01:23:01.631Z,2.5
2016-12-09T01:23:20.255Z,2.5
2016-12-09T01:23:38.878Z,2.5
2016-12-09T01:23:57.502Z,2.5
2016-12-09T01:24:16.126Z,2.5
2016-12-09T01:24:34.750Z,2.5
2016-12-09T01:24:53.380Z,2.5
2016-12-09T01:25:11.999Z,2.4
2016-12-09T01:25:30.640Z,2.4
2016-12-09T01:25:49.284Z,2.4
2016-12-09T01:26:07.916Z,2.4
2016-12-09T01:26:26.538Z,2.4
2016-12-09T01:26:45.172Z,2.4
2016-12-09T01:27:03.787Z,2.4
2016-12-09T01:27:22.407Z,2.3
2016-12-09T01:27:41.033Z,2.3
2016-12-09T01:27:59.665Z,2.3
2016-12-09T01:28:18.284Z,2.3
2016-12-09T01:28:36.904Z,2.2
2016-12-09T01:28:55.531Z,2.2
2016-12-09T01:29:14.166Z,2.2
2016-12-09T01:29:32.827Z,2.2
2016-12-09T01:29:51.460Z,2.2
2016-12-09T01:30:10.085Z,2.2
2016-12-09T01:30:28.705Z,2.2
2016-12-09T01:30:47.331Z,2.1
2016-12-09T01:31:05.955Z,2.1
2016-12-09T01:31:24.583Z,2.1
2016-12-09T01:31:43.208Z,2.1
2016-12-09T01:32:01.837Z,2.1
2016-12-09T01:32:20.464Z,2.1
2016-12-09T01:32:39.086Z,2.1
2016-12-09T01:32:57.752Z,2.1
2016-12-09T01:33:16.378Z,2.1
2016-12-09T01:33:35.004Z,2
2016-12-09T01:33:53.632Z,2
2016-12-09T01:34:12.256Z,2
2016-12-09T01:34:30.885Z,2.1
2016-12-09T01:34:49.532Z,2.1
2016-12-09T01:35:08.152Z,2.1
2016-12-09T01:35:26.780Z,2.1
2016-12-09T01:35:45.413Z,2.1
2016-12-09T01:36:04.038Z,2.1
2016-12-09T01:36:22.664Z,2.1
2016-12-09T01:36:41.285Z,2.1
2016-12-09T01:36:59.904Z,2.2
2016-12-09T01:37:18.539Z,2.2
2016-12-09T01:37:37.163Z,2.2
2016-12-09T01:37:55.796Z,2.3
2016-12-09T01:38:14.456Z,2.3
2016-12-09T01:38:33.073Z,2.3
2016-12-09T01:38:51.701Z,2.3
2016-12-09T01:39:10.330Z,2.4
2016-12-09T01:39:28.951Z,2.4
2016-12-09T01:39:47.578Z,2.4
2016-12-09T01:40:06.200Z,2.5
2016-12-09T01:40:24.821Z,2.5
2016-12-09T01:40:43.456Z,2.5
2016-12-09T01:41:02.080Z,2.6
2016-12-09T01:41:20.705Z,2.6
2016-12-09T01:41:39.352Z,2.6
2016-12-09T01:41:57.971Z,2.6
2016-12-09T01:42:16.597Z,2.6
2016-12-09T01:42:35.234Z,2.6
2016-12-09T01:42:53.856Z,2.6
2016-12-09T01:43:12.481Z,2.6
2016-12-09T01:43:31.102Z,2.6
2016-12-09T01:43:49.728Z,2.6
2016-12-09T01:44:08.350Z,2.6
2016-12-09T01:44:26.981Z,2.6
2016-12-09T01:44:45.610Z,2.6
2016-12-09T01:45:04.256Z,2.6
2016-12-09T01:45:22.876Z,2.6
2016-12-09T01:45:41.507Z,2.6
2016-12-09T01:46:00.131Z,2.6
2016-12-09T01:46:18.753Z,2.6
2016-12-09T01:46:37.403Z,2.6
2016-12-09T01:46:56.029Z,2.6
2016-12-09T01:47:14.655Z,2.6
2016-12-09T01:47:33.281Z,2.6
2016-12-09T01:47:51.931Z,2.6
2016-12-09T01:48:10.555Z,2.6
2016-12-09T01:48:29.202Z,2.6
2016-12-09T01:48:47.831Z,2.6
2016-12-09T01:49:06.457Z,2.6
2016-12-09T01:49:25.083Z,2.5
2016-12-09T01:49:43.704Z,2.5
2016-12-09T01:50:02.326Z,2.5
2016-12-09T01:50:20.949Z,2.5
2016-12-09T01:50:39.574Z,2.5
2016-12-09T01:50:58.210Z,2.6
2016-12-09T01:51:16.835Z,2.6
2016-12-09T01:51:35.466Z,2.6
2016-12-09T01:51:54.093Z,2.6
2016-12-09T01:52:12.753Z,2.7
2016-12-09T01:52:31.375Z,2.7
2016-12-09T01:52:49.998Z,2.8
2016-12-09T01:53:08.631Z,2.8
2016-12-09T01:53:27.253Z,2.9
2016-12-09T01:53:45.873Z,2.9
2016-12-09T01:54:04.503Z,3
2016-12-09T01:54:23.128Z,3
2016-12-09T01:54:41.750Z,3.1
2016-12-09T01:55:00.374Z,3.1
2016-12-09T01:55:18.995Z,3.1
2016-12-09T01:55:37.651Z,3.1
2016-12-09T01:55:56.281Z,3.1
2016-12-09T01:56:14.909Z,3.1
2016-12-09T01:56:33.538Z,3.1
2016-12-09T01:56:52.158Z,3.1
2016-12-09T01:57:10.776Z,3.1
2016-12-09T01:57:29.423Z,3
2016-12-09T01:57:48.054Z,3
2016-12-09T01:58:06.681Z,3
2016-12-09T01:58:25.329Z,3
2016-12-09T01:58:43.952Z,3
2016-12-09T01:59:02.585Z,2.9
2016-12-09T01:59:21.213Z,2.9
2016-12-09T01:59:39.840Z,3
2016-12-09T01:59:58.467Z,3
2016-12-09T02:00:17.091Z,3.1
2016-12-09T02:00:35.716Z,3.1
2016-12-09T02:00:54.370Z,3.2
2016-12-09T02:01:12.995Z,3.2
2016-12-09T02:01:31.620Z,3.2
2016-12-09T02:01:50.240Z,3.3
2016-12-09T02:02:08.865Z,3.3
2016-12-09T02:02:27.501Z,3.4
2016-12-09T02:02:46.125Z,3.5
2016-12-09T02:03:04.750Z,3.5
2016-12-09T02:03:23.374Z,3.6
2016-12-09T02:03:42.019Z,3.6
2016-12-09T02:04:00.649Z,3.6
2016-12-09T02:04:19.307Z,3.6
2016-12-09T02:04:37.929Z,3.6
2016-12-09T02:04:56.556Z,3.6
2016-12-09T02:05:15.176Z,3.7
2016-12-09T02:05:33.806Z,3.7
2016-12-09T02:05:52.432Z,3.8
2016-12-09T02:06:11.066Z,3.8
2016-12-09T02:06:29.689Z,3.8
2016-12-09T02:06:48.313Z,3.8
2016-12-09T02:07:06.934Z,3.9
2016-12-09T02:07:25.566Z,3.9
2016-12-09T02:07:44.222Z,3.9
2016-12-09T02:08:02.847Z,3.9
2016-12-09T02:08:21.471Z,3.9
2016-12-09T02:08:40.103Z,3.9
2016-12-09T02:08:58.758Z,3.9
2016-12-09T02:09:17.382Z,3.9
2016-12-09T02:09:36.011Z,3.9
2016-12-09T02:09:54.641Z,3.9
2016-12-09T02:10:13.256Z,3.9
2016-12-09T02:10:31.876Z,3.9
2016-12-09T02:10:50.516Z,3.9
2016-12-09T02:11:09.177Z,3.9
2016-12-09T02:11:27.803Z,4
2016-12-09T02:11:46.424Z,4
2016-12-09T02:12:05.041Z,4
2016-12-09T02:12:23.667Z,4
2016-12-09T02:12:42.293Z,4
2016-12-09T02:13:00.919Z,4
2016-12-09T02:13:19.545Z,4
2016-12-09T02:13:38.168Z,4
2016-12-09T02:13:56.794Z,4
2016-12-09T02:14:15.433Z,4
2016-12-09T02:14:34.084Z,4.1
2016-12-09T02:14:52.710Z,4.1
2016-12-09T02:15:11.340Z,4.1
2016-12-09T02:15:29.967Z,4.1
2016-12-09T02:15:48.591Z,4.2
2016-12-09T02:16:07.218Z,4.2
2016-12-09T02:16:25.844Z,4.2
2016-12-09T02:16:44.470Z,4.2
2016-12-09T02:17:03.092Z,4.2
2016-12-09T02:17:21.712Z,4.3
2016-12-09T02:17:40.338Z,4.3
2016-12-09T02:17:58.978Z,4.2
2016-12-09T02:18:17.639Z,4.2
2016-12-09T02:18:36.260Z,4.2
2016-12-09T02:18:54.879Z,4.2
2016-12-09T02:19:13.505Z,4.2
2016-12-09T02:19:32.149Z,4.2
2016-12-09T02:19:50.773Z,4.2
2016-12-09T02:20:09.404Z,4.2
2016-12-09T02:20:28.037Z,4.2
2016-12-09T02:20:46.663Z,4.2
2016-12-09T02:21:05.291Z,4.2
2016-12-09T02:21:23.924Z,4.1
2016-12-09T02:21:42.577Z,4.1
2016-12-09T02:22:01.201Z,4.1
2016-12-09T02:22:19.823Z,4.1
2016-12-09T02:22:38.457Z,4.1
2016-12-09T02:22:57.082Z,4.1
2016-12-09T02:23:15.705Z,4.1
2016-12-09T02:23:34.339Z,4.1
2016-12-09T02:23:52.960Z,4.1
2016-12-09T02:24:11.585Z,4.1
2016-12-09T02:24:30.216Z,4.1
2016-12-09T02:24:48.853Z,4.2
2016-12-09T02:25:07.507Z,4.2
2016-12-09T02:25:26.138Z,4.2
2016-12-09T02:25:44.761Z,4.2
2016-12-09T02:26:03.381Z,4.2
2016-12-09T02:26:22.011Z,4.2
2016-12-09T02:26:40.635Z,4.2
2016-12-09T02:26:59.295Z,4.2
2016-12-09T02:27:17.913Z,4.2
2016-12-09T02:27:36.538Z,4.2
2016-12-09T02:27:55.169Z,4.2
2016-12-09T02:28:13.792Z,4.3
2016-12-09T02:28:32.417Z,4.3
2016-12-09T02:28:51.038Z,4.3
2016-12-09T02:29:09.661Z,4.3
2016-12-09T02:29:28.298Z,4.3
2016-12-09T02:29:46.921Z,4.3
2016-12-09T02:30:05.574Z,4.3
2016-12-09T02:30:24.222Z,4.3
2016-12-09T02:30:42.840Z,4.3
2016-12-09T02:31:01.482Z,4.3
2016-12-09T02:31:20.109Z,4.3
2016-12-09T02:31:38.742Z,4.4
2016-12-09T02:31:57.372Z,4.4
2016-12-09T02:32:16.023Z,4.4
2016-12-09T02:32:34.652Z,4.4
2016-12-09T02:32:53.282Z,4.5
2016-12-09T02:33:11.911Z,4.6
2016-12-09T02:33:30.541Z,4.6
2016-12-09T02:33:49.190Z,4.7
2016-12-09T02:34:07.814Z,4.7
2016-12-09T02:34:26.441Z,4.7
2016-12-09T02:34:45.063Z,4.8
2016-12-09T02:35:03.691Z,4.8
2016-12-09T02:35:22.344Z,4.8
2016-12-09T02:35:40.962Z,4.8
2016-12-09T02:35:59.589Z,4.8
2016-12-09T02:36:18.220Z,4.9
2016-12-09T02:36:36.866Z,4.9
2016-12-09T02:36:55.494Z,4.9
2016-12-09T02:37:14.147Z,4.9
2016-12-09T02:37:32.769Z,4.9
2016-12-09T02:37:51.394Z,4.9
2016-12-09T02:38:10.016Z,4.9
2016-12-09T02:38:28.639Z,5
2016-12-09T02:38:47.266Z,5
2016-12-09T02:39:05.890Z,5
2016-12-09T02:39:24.521Z,5
2016-12-09T02:39:43.151Z,5
2016-12-09T02:40:01.781Z,5
2016-12-09T02:40:20.415Z,5
2016-12-09T02:40:39.085Z,5
2016-12-09T02:40:57.713Z,5
2016-12-09T02:41:16.335Z,5
2016-12-09T02:41:34.960Z,5
2016-12-09T02:41:53.582Z,5
2016-12-09T02:42:12.207Z,5
2016-12-09T02:42:30.827Z,5
2016-12-09T02:42:49.457Z,5
2016-12-09T02:43:08.087Z,5
2016-12-09T02:43:26.720Z,5
2016-12-09T02:43:45.351Z,5
2016-12-09T02:44:03.995Z,5
2016-12-09T02:44:22.622Z,5
2016-12-09T02:44:41.245Z,5
2016-12-09T02:44:59.875Z,5
2016-12-09T02:45:18.497Z,5
2016-12-09T02:45:37.122Z,5
2016-12-09T02:45:55.753Z,5
2016-12-09T02:46:14.381Z,5
2016-12-09T02:46:33.015Z,5
2016-12-09T02:46:51.634Z,5
2016-12-09T02:47:10.259Z,5
2016-12-09T02:47:28.893Z,5
2016-12-09T02:47:47.536Z,5
2016-12-09T02:48:06.161Z,5.1
2016-12-09T02:48:24.784Z,5.1
2016-12-09T02:48:43.416Z,5.1
2016-12-09T02:49:02.049Z,5.1
2016-12-09T02:49:20.669Z,5.1
2016-12-09T02:49:39.291Z,5.1
2016-12-09T02:49:57.915Z,5.1
2016-12-09T02:50:16.548Z,5.1
2016-12-09T02:50:35.173Z,5.1
2016-12-09T02:50:53.796Z,5.1
2016-12-09T02:51:12.462Z,5.1
2016-12-09T02:51:31.088Z,5.1
2016-12-09T02:51:49.737Z,5.1
2016-12-09T02:52:08.356Z,5.1
2016-12-09T02:52:26.982Z,5.1
2016-12-09T02:52:45.612Z,5.1
2016-12-09T02:53:04.239Z,5.2
2016-12-09T02:53:22.864Z,5.2
2016-12-09T02:53:41.495Z,5.2
2016-12-09T02:54:00.115Z,5.2
2016-12-09T02:54:18.741Z,5.2
2016-12-09T02:54:37.400Z,5.3
2016-12-09T02:54:56.023Z,5.3
2016-12-09T02:55:14.654Z,5.3
2016-12-09T02:55:33.277Z,5.3
2016-12-09T02:55:51.899Z,5.4
2016-12-09T02:56:10.524Z,5.4
2016-12-09T02:56:29.178Z,5.4
2016-12-09T02:56:47.804Z,5.4
2016-12-09T02:57:06.430Z,5.3
2016-12-09T02:57:25.050Z,5.3
2016-12-09T02:57:43.673Z,5.3
2016-12-09T02:58:02.298Z,5.4
2016-12-09T02:58:20.925Z,5.4
2016-12-09T02:58:39.550Z,5.4
2016-12-09T02:58:58.173Z,5.4
2016-12-09T02:59:16.806Z,5.4
2016-12-09T02:59:35.437Z,5.4
2016-12-09T02:59:54.090Z,5.4
2016-12-09T03:00:12.714Z,5.4
2016-12-09T03:00:31.345Z,5.4
2016-12-09T03:00:49.967Z,5.4
2016-12-09T03:01:08.588Z,5.4
2016-12-09T03:01:27.215Z,5.4
2016-12-09T03:01:45.851Z,5.4
2016-12-09T03:02:04.469Z,5.4
2016-12-09T03:02:23.090Z,5.4
2016-12-09T03:02:41.721Z,5.4
2016-12-09T03:03:00.345Z,5.4
2016-12-09T03:03:19.002Z,5.4
2016-12-09T03:03:37.625Z,5.4
2016-12-09T03:03:56.244Z,5.4
2016-12-09T03:04:14.867Z,5.4
2016-12-09T03:04:33.493Z,5.4
2016-12-09T03:04:52.122Z,5.4
2016-12-09T03:05:10.743Z,5.3
2016-12-09T03:05:29.368Z,5.4
2016-12-09T03:05:47.992Z,5.4
2016-12-09T03:06:06.614Z,5.4
2016-12-09T03:06:25.248Z,5.4
2016-12-09T03:06:43.903Z,5.3
2016-12-09T03:07:02.539Z,5.4
2016-12-09T03:07:21.169Z,5.3
2016-12-09T03:07:39.792Z,5.3
2016-12-09T03:07:58.416Z,5.3
2016-12-09T03:08:17.040Z,5.3
2016-12-09T03:08:35.664Z,5.3
2016-12-09T03:08:54.289Z,5.3
2016-12-09T03:09:12.921Z,5.3
2016-12-09T03:09:31.538Z,5.3
2016-12-09T03:09:50.161Z,5.3
2016-12-09T03:10:08.814Z,5.3
2016-12-09T03:10:27.437Z,5.3
2016-12-09T03:10:46.061Z,5.3
2016-12-09T03:11:04.686Z,5.3
2016-12-09T03:11:23.310Z,5.3
2016-12-09T03:11:41.937Z,5.3
2016-12-09T03:12:00.563Z,5.3
2016-12-09T03:12:19.208Z,5.3
2016-12-09T03:12:37.828Z,5.3
2016-12-09T03:12:56.448Z,5.3
2016-12-09T03:13:15.074Z,5.3
2016-12-09T03:13:33.706Z,5.3
2016-12-09T03:13:52.364Z,5.3
2016-12-09T03:14:10.990Z,5.3
2016-12-09T03:14:29.610Z,5.3
2016-12-09T03:14:48.235Z,5.3
2016-12-09T03:15:06.859Z,5.3
2016-12-09T03:15:25.486Z,5.3
2016-12-09T03:15:44.119Z,5.3
2016-12-09T03:16:02.744Z,5.3
2016-12-09T03:16:21.372Z,5.3
2016-12-09T03:16:40.002Z,5.3
2016-12-09T03:16:58.630Z,5.3
2016-12-09T03:17:17.287Z,5.3
2016-12-09T03:17:35.933Z,5.3
2016-12-09T03:17:54.556Z,5.3
2016-12-09T03:18:13.181Z,5.3
2016-12-09T03:18:31.802Z,5.3
2016-12-09T03:18:50.432Z,5.4
2016-12-09T03:19:09.074Z,5.3
2016-12-09T03:19:27.694Z,5.3
2016-12-09T03:19:46.315Z,5.4
2016-12-09T03:20:04.946Z,5.4
2016-12-09T03:20:23.568Z,5.4
2016-12-09T03:20:42.196Z,5.4
2016-12-09T03:21:00.818Z,5.4
2016-12-09T03:21:19.438Z,5.4
2016-12-09T03:21:38.058Z,5.4
2016-12-09T03:21:56.685Z,5.4
2016-12-09T03:22:15.325Z,5.4
2016-12-09T03:22:33.990Z,5.4
2016-12-09T03:22:52.630Z,5.4
2016-12-09T03:23:11.248Z,5.4
2016-12-09T03:23:29.868Z,5.4
2016-12-09T03:23:48.490Z,5.4
2016-12-09T03:24:07.110Z,5.4
2016-12-09T03:24:25.734Z,5.4
2016-12-09T03:24:44.365Z,5.4
2016-12-09T03:25:02.987Z,5.4
2016-12-09T03:25:21.607Z,5.4
2016-12-09T03:25:40.240Z,5.4
2016-12-09T03:25:58.898Z,5.4
2016-12-09T03:26:17.521Z,5.4
2016-12-09T03:26:36.142Z,5.4
2016-12-09T03:26:54.769Z,5.4
2016-12-09T03:27:13.399Z,5.4
2016-12-09T03:27:32.027Z,5.4
2016-12-09T03:27:50.651Z,5.4
2016-12-09T03:28:09.283Z,5.4
2016-12-09T03:28:27.904Z,5.5
2016-12-09T03:28:46.531Z,5.5
2016-12-09T03:29:05.188Z,5.5
2016-12-09T03:29:23.868Z,5.5
2016-12-09T03:29:42.488Z,5.5
2016-12-09T03:30:01.109Z,5.5
2016-12-09T03:30:19.736Z,5.5
2016-12-09T03:30:38.359Z,5.5
2016-12-09T03:30:56.981Z,5.5
2016-12-09T03:31:15.608Z,5.5
2016-12-09T03:31:34.232Z,5.5
2016-12-09T03:31:52.860Z,5.5
2016-12-09T03:32:11.486Z,5.5
2016-12-09T03:32:30.108Z,5.5
2016-12-09T03:32:48.752Z,5.5
2016-12-09T03:33:07.374Z,5.5
2016-12-09T03:33:26.000Z,5.5
2016-12-09T03:33:44.634Z,5.5
2016-12-09T03:34:03.260Z,5.5
2016-12-09T03:34:21.913Z,5.5
2016-12-09T03:34:40.542Z,5.5
2016-12-09T03:34:59.168Z,5.5
2016-12-09T03:35:17.818Z,5.5
2016-12-09T03:35:36.448Z,5.5
2016-12-09T03:35:55.078Z,5.5
2016-12-09T03:36:13.722Z,5.5
2016-12-09T03:36:32.341Z,5.5
2016-12-09T03:36:50.961Z,5.5
2016-12-09T03:37:09.592Z,5.5
2016-12-09T03:37:28.240Z,5.5
2016-12-09T03:37:46.870Z,5.5
2016-12-09T03:38:05.499Z,5.5
2016-12-09T03:38:24.119Z,5.5
2016-12-09T03:38:42.750Z,5.6
2016-12-09T03:39:01.380Z,5.6
2016-12-09T03:39:20.006Z,5.6
2016-12-09T03:39:38.639Z,5.6
2016-12-09T03:39:57.288Z,5.6
2016-12-09T03:40:15.914Z,5.6
2016-12-09T03:40:34.533Z,5.6
2016-12-09T03:40:53.157Z,5.6
2016-12-09T03:41:11.783Z,5.6
2016-12-09T03:41:30.414Z,5.6
2016-12-09T03:41:49.036Z,5.6
2016-12-09T03:42:07.653Z,5.6
2016-12-09T03:42:26.280Z,5.6
2016-12-09T03:42:44.912Z,5.6
2016-12-09T03:43:03.534Z,5.6
2016-12-09T03:43:22.190Z,5.6
2016-12-09T03:43:40.843Z,5.6
2016-12-09T03:43:59.496Z,5.6
2016-12-09T03:44:18.122Z,5.6
2016-12-09T03:44:36.747Z,5.6
2016-12-09T03:44:55.367Z,5.6
2016-12-09T03:45:13.992Z,5.6
2016-12-09T03:45:32.626Z,5.6
2016-12-09T03:45:51.256Z,5.6
2016-12-09T03:46:09.886Z,5.6
2016-12-09T03:46:28.508Z,5.6
2016-12-09T03:46:47.164Z,5.6
2016-12-09T03:47:05.796Z,5.6
2016-12-09T03:47:24.421Z,5.6
2016-12-09T03:47:43.044Z,5.6
2016-12-09T03:48:01.669Z,5.6
2016-12-09T03:48:20.291Z,5.6
2016-12-09T03:48:38.937Z,5.6
2016-12-09T03:48:57.561Z,5.6
2016-12-09T03:49:16.213Z,5.6
2016-12-09T03:49:34.836Z,5.6
2016-12-09T03:49:53.462Z,5.6
2016-12-09T03:50:12.086Z,5.6
2016-12-09T03:50:30.711Z,5.6
2016-12-09T03:50:49.335Z,5.6
2016-12-09T03:51:07.957Z,5.6
2016-12-09T03:51:26.589Z,5.6
2016-12-09T03:51:45.211Z,5.5
2016-12-09T03:52:03.857Z,5.5
2016-12-09T03:52:22.485Z,5.5
2016-12-09T03:52:41.123Z,5.5
2016-12-09T03:52:59.746Z,5.5
2016-12-09T03:53:18.361Z,5.5
2016-12-09T03:53:36.987Z,5.5
2016-12-09T03:53:55.619Z,5.5
2016-12-09T03:54:14.251Z,5.4
2016-12-09T03:54:32.893Z,5.4
2016-12-09T03:54:51.520Z,5.4
2016-12-09T03:55:10.146Z,5.4
2016-12-09T03:55:28.801Z,5.4
2016-12-09T03:55:47.426Z,5.4
2016-12-09T03:56:06.055Z,5.4
2016-12-09T03:56:24.677Z,5.4
2016-12-09T03:56:43.298Z,5.4
2016-12-09T03:57:01.915Z,5.3
2016-12-09T03:57:20.542Z,5.3
2016-12-09T03:57:39.173Z,5.3
2016-12-09T03:57:57.803Z,5.3
2016-12-09T03:58:16.426Z,5.3
2016-12-09T03:58:35.049Z,5.3
2016-12-09T03:58:53.698Z,5.3
2016-12-09T03:59:12.327Z,5.3
2016-12-09T03:59:30.951Z,5.3
2016-12-09T03:59:49.591Z,5.3
2016-12-09T04:00:08.213Z,5.3
2016-12-09T04:00:26.833Z,5.3
2016-12-09T04:00:45.450Z,5.3
2016-12-09T04:01:04.080Z,5.3
2016-12-09T04:01:22.707Z,5.3
2016-12-09T04:01:41.337Z,5.3
2016-12-09T04:01:59.964Z,5.3
2016-12-09T04:02:18.599Z,5.3
2016-12-09T04:02:37.233Z,5.3
2016-12-09T04:02:55.858Z,5.3
2016-12-09T04:03:14.485Z,5.3
2016-12-09T04:03:33.107Z,5.3
2016-12-09T04:03:51.729Z,5.3
2016-12-09T04:04:10.358Z,5.3
2016-12-09T04:04:28.989Z,5.3
2016-12-09T04:04:47.612Z,5.3
2016-12-09T04:05:06.247Z,5.2
2016-12-09T04:05:24.866Z,5.2
2016-12-09T04:05:43.499Z,5.2
2016-12-09T04:06:02.164Z,5.2
2016-12-09T04:06:20.786Z,5.2
2016-12-09T04:06:39.410Z,5.2
2016-12-09T04:06:58.032Z,5.2
2016-12-09T04:07:16.657Z,5.2
2016-12-09T04:07:35.296Z,5.2
2016-12-09T04:07:53.932Z,5.2
2016-12-09T04:08:12.563Z,5.2
2016-12-09T04:08:31.188Z,5.2
2016-12-09T04:08:49.810Z,5.2
2016-12-09T04:09:08.428Z,5.2
2016-12-09T04:09:27.087Z,5.2
2016-12-09T04:09:45.709Z,5.2
2016-12-09T04:10:04.335Z,5.2
2016-12-09T04:10:22.980Z,5.2
2016-12-09T04:10:41.601Z,5.2
2016-12-09T04:11:00.231Z,5.2
2016-12-09T04:11:18.877Z,5.2
2016-12-09T04:11:37.507Z,5.2
2016-12-09T04:11:56.162Z,5.3
2016-12-09T04:12:14.782Z,5.3
2016-12-09T04:12:33.413Z,5.3
2016-12-09T04:12:52.074Z,5.3
2016-12-09T04:13:10.699Z,5.3
2016-12-09T04:13:29.325Z,5.3
2016-12-09T04:13:47.947Z,5.3
2016-12-09T04:14:06.571Z,5.3
2016-12-09T04:14:25.194Z,5.3
2016-12-09T04:14:43.840Z,5.2
2016-12-09T04:15:02.459Z,5.2
2016-12-09T04:15:21.083Z,5.2
2016-12-09T04:15:39.736Z,5.2
2016-12-09T04:15:58.359Z,5.2
2016-12-09T04:16:17.000Z,5.2
2016-12-09T04:16:35.625Z,5.2
2016-12-09T04:16:54.246Z,5.2
2016-12-09T04:17:12.875Z,5.2
2016-12-09T04:17:31.500Z,5.2
2016-12-09T04:17:50.126Z,5.2
2016-12-09T04:18:08.782Z,5.2
2016-12-09T04:18:27.410Z,5.2